Time;durP1;ratioP1;P1;durP2;ratioP2;P2;SDS_P1;SDS_P2;PMS_P1;PMS_P2;Temp;Humidity;BMP_temperature;BMP_pressure;BME280_temperature;BME280_humidity;BME280_pressure;Samples;Min_cycle;Max_cycle;Signal;HPM_P1;HPM_P2
2021/08/16 00:00:12;;;;;;;11.05;9.85;;;;;;;20.13;64.80;99506.28;5050806;28;20025;-60
2021/08/16 00:02:37;;;;;;;16.25;9.70;;;;;;;20.26;64.61;99523.75;5051378;28;20033;-61
2021/08/16 00:05:04;;;;;;;11.98;9.02;;;;;;;20.25;64.71;99530.19;5050667;28;20036;-60
2021/08/16 00:07:30;;;;;;;13.23;9.70;;;;;;;20.20;65.00;99523.47;5050979;28;20388;-60
2021/08/16 00:09:55;;;;;;;11.45;9.63;;;;;;;20.18;65.22;99514.66;5051083;28;20021;-60
2021/08/16 00:12:21;;;;;;;14.80;9.63;;;;;;;20.14;65.33;99513.38;5050794;28;20438;-60
2021/08/16 00:14:46;;;;;;;14.45;9.65;;;;;;;20.09;65.61;99504.97;5044447;28;20182;-61
2021/08/16 00:17:12;;;;;;;13.93;9.63;;;;;;;20.11;65.36;99511.06;5048727;28;20095;-60
2021/08/16 00:19:38;;;;;;;15.00;10.30;;;;;;;20.12;65.75;99512.75;5048613;28;20545;-63
2021/08/16 00:22:04;;;;;;;11.80;9.85;;;;;;;20.10;65.75;99517.53;5048749;28;20041;-60
2021/08/16 00:24:30;;;;;;;15.85;10.18;;;;;;;19.91;66.08;99503.53;5049126;28;20033;-60
2021/08/16 00:26:56;;;;;;;15.60;10.27;;;;;;;20.02;66.31;99526.66;5048843;28;20393;-60
2021/08/16 00:29:21;;;;;;;13.77;9.63;;;;;;;20.01;66.31;99524.09;5049111;28;21062;-60
2021/08/16 00:31:47;;;;;;;14.85;10.73;;;;;;;19.94;66.47;99514.03;5049046;28;20028;-61
2021/08/16 00:34:12;;;;;;;13.38;10.25;;;;;;;19.96;66.17;99526.56;5049978;28;20031;-59
2021/08/16 00:36:38;;;;;;;15.38;10.05;;;;;;;19.91;66.75;99519.84;5050475;28;20032;-59
2021/08/16 00:39:03;;;;;;;14.98;9.95;;;;;;;19.89;66.88;99521.88;5050864;28;20021;-62
2021/08/16 00:41:29;;;;;;;18.73;10.30;;;;;;;19.88;67.13;99524.78;5042024;28;20055;-60
2021/08/16 00:43:55;;;;;;;12.70;9.27;;;;;;;19.86;67.14;99522.28;5030760;28;20207;-60
2021/08/16 00:46:21;;;;;;;14.95;9.85;;;;;;;19.85;67.08;99523.31;5030868;28;20029;-59
2021/08/16 00:48:47;;;;;;;15.95;10.50;;;;;;;19.82;67.53;99520.97;5032282;28;20034;-60
2021/08/16 00:51:12;;;;;;;17.70;10.20;;;;;;;19.78;67.50;99525.13;5032799;28;20053;-60
2021/08/16 00:53:39;;;;;;;12.50;9.27;;;;;;;19.74;67.49;99530.09;5034339;28;20053;-60
2021/08/16 00:56:07;;;;;;;15.15;9.93;;;;;;;19.74;67.10;99529.22;5034252;28;20033;-59
2021/08/16 00:58:33;;;;;;;12.15;10.20;;;;;;;19.69;68.00;99532.53;5034478;28;20032;-60
2021/08/16 01:00:59;;;;;;;16.35;9.63;;;;;;;19.62;67.88;99532.44;5033940;28;20033;-60
2021/08/16 01:03:38;;;;;;;12.60;9.90;;;;;;;19.61;68.01;99525.34;5033644;28;20033;-60
2021/08/16 01:06:04;;;;;;;12.07;9.98;;;;;;;19.63;68.44;99528.69;5033662;28;20083;-69
2021/08/16 01:08:30;;;;;;;16.65;10.68;;;;;;;19.61;68.08;99527.19;5034203;28;20036;-59
2021/08/16 01:10:55;;;;;;;13.85;9.93;;;;;;;19.61;68.39;99536.19;5033838;28;20408;-60
2021/08/16 01:13:22;;;;;;;12.65;9.48;;;;;;;19.59;68.50;99546.41;5033888;28;20079;-59
2021/08/16 01:16:01;;;;;;;14.23;10.40;;;;;;;19.60;68.47;99536.38;5040020;28;20051;-61
2021/08/16 01:18:29;;;;;;;19.17;10.65;;;;;;;19.51;69.01;99546.50;5051645;28;20420;-62
2021/08/16 01:20:55;;;;;;;14.35;11.00;;;;;;;19.48;68.74;99539.59;5051567;28;20443;-60
2021/08/16 01:23:21;;;;;;;13.77;10.63;;;;;;;19.42;69.37;99542.22;5051326;28;20045;-61
2021/08/16 01:25:48;;;;;;;14.02;10.60;;;;;;;19.45;68.99;99531.81;5051348;28;20071;-60
2021/08/16 01:28:18;;;;;;;14.23;10.05;;;;;;;19.48;69.20;99553.16;5051284;28;20053;-60
2021/08/16 01:30:55;;;;;;;12.80;10.20;;;;;;;19.39;69.63;99550.75;5045763;28;20421;-60
2021/08/16 01:33:22;;;;;;;12.43;10.38;;;;;;;19.34;69.49;99543.16;5031599;28;20038;-62
2021/08/16 01:35:47;;;;;;;14.73;10.55;;;;;;;19.30;69.85;99542.69;5031297;28;20083;-61
2021/08/16 01:38:13;;;;;;;14.35;9.95;;;;;;;19.28;69.91;99546.63;5031606;28;20037;-62
2021/08/16 01:40:38;;;;;;;13.32;10.40;;;;;;;19.25;69.89;99547.81;5031427;28;20416;-60
2021/08/16 01:43:05;;;;;;;14.63;9.90;;;;;;;19.11;70.11;99540.53;5031337;28;20026;-60
2021/08/16 01:45:30;;;;;;;16.75;10.02;;;;;;;19.16;70.28;99552.50;5030975;28;20032;-60
2021/08/16 01:47:57;;;;;;;15.52;10.45;;;;;;;19.16;70.22;99566.06;5030762;28;20080;-61
2021/08/16 01:50:23;;;;;;;13.63;10.43;;;;;;;19.15;70.34;99574.41;5031093;28;20033;-61
2021/08/16 01:52:48;;;;;;;14.50;10.35;;;;;;;19.14;70.29;99556.44;5029717;28;20068;-59
2021/08/16 01:55:15;;;;;;;12.38;11.07;;;;;;;18.95;70.25;99536.94;5030822;28;20079;-62
2021/08/16 01:57:40;;;;;;;13.15;10.38;;;;;;;19.10;70.46;99560.56;5031032;28;20029;-61
2021/08/16 02:00:07;;;;;;;15.35;11.15;;;;;;;19.05;70.73;99570.13;5030945;28;20393;-61
2021/08/16 02:02:32;;;;;;;16.40;11.27;;;;;;;19.06;70.57;99568.22;5032340;28;20134;-59
2021/08/16 02:04:57;;;;;;;14.77;10.60;;;;;;;19.04;70.54;99564.88;5050992;28;20123;-60
2021/08/16 02:07:23;;;;;;;14.80;10.80;;;;;;;19.03;70.87;99568.59;5050524;28;20808;-62
2021/08/16 02:09:48;;;;;;;19.67;11.57;;;;;;;19.04;70.38;99581.97;5050499;28;20043;-61
2021/08/16 02:12:14;;;;;;;18.90;10.95;;;;;;;19.04;70.65;99586.56;5050649;28;20025;-60
2021/08/16 02:14:39;;;;;;;13.48;11.50;;;;;;;19.02;70.36;99581.31;5050180;28;20033;-60
2021/08/16 02:17:05;;;;;;;17.48;11.07;;;;;;;19.06;70.56;99582.66;5050630;28;20078;-61
2021/08/16 02:19:31;;;;;;;18.63;11.05;;;;;;;19.04;70.62;99573.81;5045608;28;20358;-60
2021/08/16 02:21:56;;;;;;;15.65;11.55;;;;;;;19.11;70.52;99581.25;5050356;28;20040;-60
2021/08/16 02:24:22;;;;;;;21.42;10.82;;;;;;;19.15;70.02;99579.84;5050350;28;20029;-61
2021/08/16 02:26:47;;;;;;;16.48;11.10;;;;;;;19.17;70.38;99583.22;5050332;28;20372;-60
2021/08/16 02:29:13;;;;;;;15.30;11.30;;;;;;;19.18;70.51;99576.75;5050580;28;20056;-61
2021/08/16 02:31:39;;;;;;;13.95;10.98;;;;;;;19.20;70.01;99567.41;5050353;28;20486;-70
2021/08/16 02:34:04;;;;;;;14.10;11.35;;;;;;;19.25;69.93;99574.97;5045629;28;20473;-65
2021/08/16 02:36:30;;;;;;;20.15;11.48;;;;;;;19.27;70.06;99586.47;5030536;28;20033;-61
2021/08/16 02:38:55;;;;;;;13.65;10.80;;;;;;;19.29;69.83;99589.88;5030825;28;20160;-63
2021/08/16 02:41:21;;;;;;;15.73;10.68;;;;;;;19.35;70.07;99590.97;5029940;28;20061;-63
2021/08/16 02:43:46;;;;;;;14.95;10.32;;;;;;;19.37;69.87;99599.78;5030284;28;20029;-61
2021/08/16 02:46:12;;;;;;;14.68;10.88;;;;;;;19.39;69.30;99591.47;5030225;28;20045;-60
2021/08/16 02:48:37;;;;;;;17.23;11.30;;;;;;;19.46;69.20;99589.66;5032174;28;20037;-59
2021/08/16 02:51:03;;;;;;;16.23;11.18;;;;;;;19.50;69.30;99594.53;5031758;28;20083;-59
2021/08/16 02:53:29;;;;;;;15.35;10.32;;;;;;;19.52;69.05;99599.75;5031846;28;20045;-60
2021/08/16 02:55:54;;;;;;;16.25;10.38;;;;;;;19.59;69.00;99603.44;5032185;28;20034;-59
2021/08/16 02:58:20;;;;;;;14.25;10.65;;;;;;;19.62;69.03;99585.91;5032340;28;20064;-58
2021/08/16 03:00:45;;;;;;;16.08;11.13;;;;;;;19.71;68.71;99605.66;5031536;28;20104;-60
2021/08/16 03:03:11;;;;;;;14.23;10.48;;;;;;;19.78;68.62;99612.03;5030450;28;20036;-65
2021/08/16 03:05:36;;;;;;;13.48;10.52;;;;;;;19.85;68.21;99598.50;5032241;28;20485;-59
2021/08/16 03:08:02;;;;;;;14.52;10.73;;;;;;;19.91;68.18;99597.81;5031586;28;20461;-61
2021/08/16 03:10:27;;;;;;;19.15;10.25;;;;;;;20.04;67.78;99600.66;5031738;28;20087;-61
2021/08/16 03:12:53;;;;;;;17.77;10.75;;;;;;;20.04;67.18;99591.69;5031725;28;20021;-60
2021/08/16 03:15:18;;;;;;;13.65;10.60;;;;;;;20.22;66.90;99605.66;5031261;28;20029;-60
2021/08/16 03:17:43;;;;;;;14.07;10.27;;;;;;;20.34;66.47;99602.44;5031459;28;20034;-59
2021/08/16 03:20:10;;;;;;;12.68;11.23;;;;;;;20.45;66.09;99612.78;5031754;28;20426;-60
2021/08/16 03:22:36;;;;;;;19.13;11.52;;;;;;;20.57;65.83;99613.13;5031197;28;20026;-61
2021/08/16 03:25:01;;;;;;;14.73;10.48;;;;;;;20.69;65.16;99607.16;5031182;28;20556;-60
2021/08/16 03:27:27;;;;;;;11.57;9.70;;;;;;;20.83;64.78;99613.59;5031212;28;20136;-60
2021/08/16 03:29:52;;;;;;;11.93;10.63;;;;;;;20.94;64.28;99607.59;5031398;28;20083;-60
2021/08/16 03:32:18;;;;;;;14.23;10.27;;;;;;;21.06;63.83;99608.75;5031141;28;20069;-60
2021/08/16 03:34:43;;;;;;;16.85;10.50;;;;;;;21.19;63.41;99609.88;5030141;28;20033;-61
2021/08/16 03:37:09;;;;;;;14.15;10.55;;;;;;;21.32;62.89;99618.16;5031411;28;20029;-59
2021/08/16 03:39:34;;;;;;;15.80;11.27;;;;;;;21.27;62.46;99593.41;5029882;28;20037;-60
2021/08/16 03:42:00;;;;;;;15.45;10.85;;;;;;;21.51;62.16;99627.47;5031149;28;20090;-62
2021/08/16 03:44:25;;;;;;;14.77;11.00;;;;;;;21.55;61.94;99624.34;5030895;28;20144;-60
2021/08/16 03:46:51;;;;;;;19.98;10.65;;;;;;;21.73;61.31;99618.41;5031279;28;20034;-60
2021/08/16 03:49:16;;;;;;;16.67;10.38;;;;;;;22.22;59.81;99628.25;5030798;28;20151;-60
2021/08/16 03:51:42;;;;;;;16.52;10.20;;;;;;;23.43;56.57;99641.16;5031432;28;20120;-60
2021/08/16 03:54:07;;;;;;;16.13;9.70;;;;;;;24.75;52.39;99625.44;5031341;28;20493;-62
2021/08/16 03:56:33;;;;;;;14.82;9.70;;;;;;;26.04;48.87;99623.09;5030884;28;20076;-60
2021/08/16 03:58:58;;;;;;;18.52;9.23;;;;;;;27.37;45.35;99629.50;5031101;28;20033;-60
2021/08/16 04:01:24;;;;;;;13.55;8.85;;;;;;;28.41;42.44;99631.66;5031105;28;20037;-61
2021/08/16 04:03:49;;;;;;;10.70;8.77;;;;;;;29.45;40.19;99620.44;5030850;28;20030;-59
2021/08/16 04:06:15;;;;;;;13.68;8.25;;;;;;;30.24;38.49;99627.75;5042573;28;20025;-61
2021/08/16 04:08:40;;;;;;;11.30;8.57;;;;;;;30.88;36.75;99618.72;5048876;28;20033;-61
2021/08/16 04:11:12;;;;;;;11.50;8.27;;;;;;;31.70;36.67;99633.34;5049299;28;20469;-59
2021/08/16 04:13:38;;;;;;;14.80;8.13;;;;;;;32.33;33.45;99624.22;5050883;28;20515;-60
2021/08/16 04:16:04;;;;;;;11.43;8.23;;;;;;;32.87;32.24;99608.16;5051050;28;20029;-59
2021/08/16 04:18:30;;;;;;;12.15;8.00;;;;;;;33.70;30.74;99625.50;5050861;28;20112;-59
2021/08/16 04:20:55;;;;;;;11.48;7.53;;;;;;;34.15;30.13;99633.94;5049475;28;20029;-61
2021/08/16 04:23:21;;;;;;;9.68;7.85;;;;;;;34.56;29.52;99630.06;5051071;28;20104;-59
2021/08/16 04:25:46;;;;;;;12.25;7.63;;;;;;;35.23;27.97;99637.06;5049915;28;20029;-61
2021/08/16 04:28:12;;;;;;;7.75;6.93;;;;;;;36.00;27.13;99643.69;5054779;28;20052;-61
2021/08/16 04:30:37;;;;;;;9.02;7.18;;;;;;;36.38;26.04;99648.47;5054762;28;20102;-61
2021/08/16 04:33:03;;;;;;;10.07;7.07;;;;;;;36.82;25.71;99651.16;5054724;28;20041;-58
2021/08/16 04:35:28;;;;;;;7.22;6.53;;;;;;;37.33;25.47;99650.28;5054176;28;20040;-59
2021/08/16 04:37:54;;;;;;;8.68;7.32;;;;;;;37.60;24.78;99645.88;5054163;28;20027;-59
2021/08/16 04:40:19;;;;;;;10.73;7.28;;;;;;;37.83;24.28;99645.97;5054334;28;20060;-60
2021/08/16 04:42:45;;;;;;;12.60;7.05;;;;;;;38.07;23.24;99644.13;5054648;28;20029;-59
2021/08/16 04:45:11;;;;;;;10.20;7.78;;;;;;;37.67;23.90;99651.06;5054062;28;20375;-61
2021/08/16 04:47:37;;;;;;;11.00;7.88;;;;;;;36.84;25.59;99660.91;5053843;28;20468;-59
2021/08/16 04:50:04;;;;;;;9.35;7.20;;;;;;;36.47;25.99;99659.78;5053970;28;20032;-59
2021/08/16 04:52:30;;;;;;;11.48;7.47;;;;;;;36.31;26.05;99632.16;5053724;28;20435;-64
2021/08/16 04:54:55;;;;;;;11.10;6.97;;;;;;;36.50;25.86;99639.66;5053866;28;20029;-62
2021/08/16 04:57:32;;;;;;;16.85;7.80;;;;;;;37.00;25.72;99653.13;5053775;28;20041;-60
2021/08/16 04:59:57;;;;;;;15.23;8.57;;;;;;;36.76;25.37;99647.63;5054051;28;20032;-59
2021/08/16 05:02:22;;;;;;;16.85;8.35;;;;;;;36.97;24.46;99636.97;5053962;28;20469;-59
2021/08/16 05:04:53;;;;;;;9.25;7.40;;;;;;;37.57;23.71;99631.72;5053667;28;20036;-60
2021/08/16 05:07:19;;;;;;;13.13;7.53;;;;;;;38.27;23.12;99637.22;5051541;28;20086;-60
2021/08/16 05:09:44;;;;;;;11.75;6.97;;;;;;;39.13;21.58;99641.03;5051484;28;20037;-58
2021/08/16 05:12:10;;;;;;;11.93;7.45;;;;;;;39.77;20.94;99639.00;5053809;28;20028;-59
2021/08/16 05:14:35;;;;;;;11.57;7.47;;;;;;;40.21;20.43;99643.88;5053130;28;20390;-60
2021/08/16 05:17:01;;;;;;;8.63;7.55;;;;;;;40.57;19.83;99637.16;5053464;28;20407;-60
2021/08/16 05:19:26;;;;;;;10.85;7.53;;;;;;;41.21;19.26;99644.00;5053605;28;20461;-61
2021/08/16 05:21:51;;;;;;;11.05;8.15;;;;;;;41.80;18.55;99639.63;5053382;28;20028;-63
2021/08/16 05:24:17;;;;;;;9.75;7.85;;;;;;;42.43;18.01;99646.47;5053121;28;20029;-60
2021/08/16 05:26:43;;;;;;;11.68;7.82;;;;;;;42.68;17.22;99650.25;5052513;28;20059;-59
2021/08/16 05:29:08;;;;;;;11.57;7.57;;;;;;;43.24;16.72;99654.66;5053140;28;20037;-59
2021/08/16 05:31:33;;;;;;;8.73;6.95;;;;;;;43.58;16.56;99658.22;5053157;28;20503;-59
2021/08/16 05:33:59;;;;;;;10.88;6.60;;;;;;;43.95;16.07;99653.78;5052785;28;20456;-58
2021/08/16 05:36:24;;;;;;;9.65;7.43;;;;;;;44.21;15.89;99652.56;5052401;28;20029;-59
2021/08/16 05:38:50;;;;;;;8.57;7.30;;;;;;;44.90;15.36;99649.72;5053135;28;20487;-65
2021/08/16 05:41:15;;;;;;;9.05;7.20;;;;;;;45.57;14.36;99668.84;5053340;28;20021;-59
2021/08/16 05:43:41;;;;;;;13.05;7.57;;;;;;;45.92;14.10;99657.97;5052781;28;20029;-61
2021/08/16 05:46:06;;;;;;;10.77;7.90;;;;;;;46.07;14.04;99651.44;5052780;28;20099;-60
2021/08/16 05:48:32;;;;;;;10.63;7.53;;;;;;;46.50;13.70;99656.44;5052442;28;20455;-64
2021/08/16 05:50:57;;;;;;;9.85;7.35;;;;;;;47.11;13.28;99648.31;5052300;28;20451;-59
2021/08/16 05:53:23;;;;;;;13.50;7.50;;;;;;;47.71;12.73;99650.56;5045921;28;20546;-60
2021/08/16 05:55:48;;;;;;;8.00;7.13;;;;;;;48.32;11.93;99655.47;5050869;28;20175;-60
2021/08/16 05:58:14;;;;;;;13.98;7.38;;;;;;;48.43;12.04;99650.75;5050478;28;20115;-64
2021/08/16 06:00:39;;;;;;;10.05;6.72;;;;;;;48.88;11.60;99655.75;5050588;28;20068;-60
2021/08/16 06:03:05;;;;;;;10.65;6.95;;;;;;;48.96;11.15;99645.28;5050881;28;20025;-60
2021/08/16 06:05:30;;;;;;;9.32;6.93;;;;;;;49.10;11.12;99655.94;5050032;28;20071;-62
2021/08/16 06:07:55;;;;;;;7.10;6.35;;;;;;;49.41;10.89;99656.63;5050384;28;20075;-64
2021/08/16 06:10:21;;;;;;;11.82;6.45;;;;;;;49.79;10.54;99651.66;5050792;28;20029;-66
2021/08/16 06:12:46;;;;;;;8.27;6.57;;;;;;;49.96;10.25;99660.75;5052581;28;20055;-60
2021/08/16 06:15:12;;;;;;;8.65;6.70;;;;;;;50.55;10.05;99659.78;5051940;28;20473;-59
2021/08/16 06:17:40;;;;;;;11.70;6.45;;;;;;;51.01;9.67;99663.19;5052255;28;20028;-61
2021/08/16 06:20:06;;;;;;;8.10;6.53;;;;;;;50.98;9.66;99656.25;5052055;28;20021;-59
2021/08/16 06:22:33;;;;;;;10.20;6.68;;;;;;;51.41;10.04;99646.94;5051466;28;20519;-60
2021/08/16 06:24:59;;;;;;;8.77;6.60;;;;;;;51.95;8.77;99629.72;5052141;28;20032;-62
2021/08/16 06:27:24;;;;;;;7.80;6.40;;;;;;;52.50;8.65;99652.38;5051915;28;20045;-60
2021/08/16 06:29:50;;;;;;;9.50;6.47;;;;;;;52.70;8.10;99663.31;5052249;28;20484;-59
2021/08/16 06:32:15;;;;;;;10.05;6.03;;;;;;;52.59;7.85;99661.31;5051807;28;20041;-59
2021/08/16 06:34:42;;;;;;;10.38;6.00;;;;;;;52.17;8.58;99646.78;5051886;28;20029;-59
2021/08/16 06:37:08;;;;;;;7.20;6.40;;;;;;;51.87;8.76;99662.38;5052264;28;20029;-60
2021/08/16 06:39:34;;;;;;;8.52;6.15;;;;;;;51.33;9.01;99659.56;5051580;28;20036;-59
2021/08/16 06:41:59;;;;;;;9.15;6.30;;;;;;;51.08;9.33;99671.75;5051527;28;20469;-61
2021/08/16 06:44:26;;;;;;;9.15;6.18;;;;;;;51.24;8.80;99680.72;5051939;28;20029;-63
2021/08/16 06:46:52;;;;;;;10.55;6.25;;;;;;;51.47;8.69;99668.13;5050666;28;20033;-59
2021/08/16 06:49:18;;;;;;;8.30;6.38;;;;;;;52.33;8.31;99660.63;5050558;28;20119;-59
2021/08/16 06:51:44;;;;;;;8.27;6.22;;;;;;;53.05;7.41;99665.13;5051392;28;20564;-60
2021/08/16 06:54:09;;;;;;;9.80;5.93;;;;;;;53.34;7.26;99664.09;5051642;28;20500;-60
2021/08/16 06:56:35;;;;;;;8.20;6.32;;;;;;;53.61;7.13;99667.09;5051795;28;20075;-61
2021/08/16 06:59:01;;;;;;;9.80;6.57;;;;;;;53.52;7.17;99658.22;5051359;28;20074;-61
2021/08/16 07:01:27;;;;;;;7.78;5.70;;;;;;;53.45;7.14;99669.75;5051551;28;20029;-61
2021/08/16 07:03:56;;;;;;;6.25;5.68;;;;;;;53.35;6.98;99669.38;5050674;28;20449;-64
2021/08/16 07:06:22;;;;;;;9.82;5.50;;;;;;;53.21;6.52;99650.28;5049881;28;20029;-62
2021/08/16 07:08:48;;;;;;;6.28;5.68;;;;;;;53.06;6.36;99666.75;5050743;28;20040;-62
2021/08/16 07:11:14;;;;;;;8.55;5.80;;;;;;;52.66;6.97;99661.28;5038211;28;20028;-64
2021/08/16 07:13:40;;;;;;;6.80;5.28;;;;;;;52.55;6.70;99660.50;5037978;28;20037;-62
2021/08/16 07:16:06;;;;;;;9.00;5.15;;;;;;;52.78;6.67;99664.88;5039343;28;20025;-61
2021/08/16 07:18:35;;;;;;;6.63;5.35;;;;;;;53.28;6.60;99665.75;5038895;28;20057;-60
2021/08/16 07:21:02;;;;;;;6.80;5.53;;;;;;;53.59;6.18;99674.50;5039807;28;20381;-59
2021/08/16 07:23:28;;;;;;;6.50;5.75;;;;;;;53.65;6.21;99667.09;5040194;28;20393;-60
2021/08/16 07:25:58;;;;;;;8.27;6.30;;;;;;;53.79;6.02;99684.16;5038954;28;20033;-67
2021/08/16 07:28:23;;;;;;;6.40;5.75;;;;;;;53.65;6.67;99672.81;5039867;28;20492;-58
2021/08/16 07:30:49;;;;;;;11.00;6.10;;;;;;;53.71;6.34;99676.84;5038679;28;20045;-65
2021/08/16 07:33:14;;;;;;;14.73;5.10;;;;;;;53.71;6.38;99668.25;5047457;28;20536;-62
2021/08/16 07:35:40;;;;;;;7.78;6.32;;;;;;;53.77;6.07;99671.50;5050803;28;20797;-61
2021/08/16 07:38:05;;;;;;;9.43;6.55;;;;;;;53.61;6.67;99666.31;5050679;28;20534;-60
2021/08/16 07:40:31;;;;;;;7.53;6.80;;;;;;;53.34;6.65;99664.09;5050651;28;20029;-59
2021/08/16 07:42:56;;;;;;;8.40;6.13;;;;;;;53.22;6.95;99666.22;5050934;28;20242;-63
2021/08/16 07:45:22;;;;;;;8.93;6.30;;;;;;;53.58;6.63;99658.59;5031909;28;20104;-59
2021/08/16 07:47:47;;;;;;;6.43;5.70;;;;;;;54.05;5.61;99656.06;5030709;28;20481;-62
2021/08/16 07:50:13;;;;;;;7.30;6.10;;;;;;;54.27;5.49;99670.13;5030748;28;20627;-61
2021/08/16 07:52:43;;;;;;;8.02;6.53;;;;;;;54.58;5.87;99670.13;5030349;28;20025;-60
2021/08/16 07:55:10;;;;;;;7.50;6.60;;;;;;;53.79;6.45;99661.25;5030600;28;20032;-62
2021/08/16 07:57:37;;;;;;;7.03;6.20;;;;;;;53.32;6.51;99664.50;5044384;28;20194;-61
2021/08/16 08:00:08;;;;;;;8.45;6.93;;;;;;;53.40;6.50;99665.28;5045337;28;20090;-60
2021/08/16 08:02:50;;;;;;;7.22;6.10;;;;;;;53.38;6.91;99657.13;5036478;28;20029;-59
2021/08/16 08:05:20;;;;;;;7.03;6.07;;;;;;;52.76;6.89;99661.63;5034418;28;20100;-57
2021/08/16 08:07:47;;;;;;;7.97;6.20;;;;;;;51.92;6.91;99658.28;5035411;28;20033;-57
2021/08/16 08:10:14;;;;;;;8.23;5.50;;;;;;;51.43;7.28;99653.06;5050687;28;20052;-65
2021/08/16 08:12:40;;;;;;;7.85;5.30;;;;;;;50.11;8.06;99651.03;5041269;28;20021;-61
2021/08/16 08:15:07;;;;;;;7.18;5.13;;;;;;;47.86;8.89;99650.75;5054440;28;20033;-60
2021/08/16 08:17:33;;;;;;;9.35;4.93;;;;;;;45.33;10.88;99657.72;5043166;28;20037;-62
2021/08/16 08:19:59;;;;;;;6.28;4.53;;;;;;;42.93;12.97;99646.72;5036549;28;20128;-61
2021/08/16 08:22:25;;;;;;;8.95;4.70;;;;;;;40.85;15.10;99654.47;5040925;28;20588;-60
2021/08/16 08:24:52;;;;;;;5.22;4.35;;;;;;;39.05;16.79;99645.41;5040421;28;20044;-62
2021/08/16 08:27:17;;;;;;;6.00;5.20;;;;;;;37.61;18.38;99627.97;5039882;28;20041;-62
2021/08/16 08:29:44;;;;;;;11.07;6.03;;;;;;;36.76;19.15;99659.63;5043627;28;20048;-65
2021/08/16 08:32:10;;;;;;;7.55;4.82;;;;;;;36.10;20.48;99648.31;5042514;28;20040;-60
2021/08/16 08:34:35;;;;;;;8.63;4.68;;;;;;;35.63;21.00;99626.59;5041917;28;20033;-59
2021/08/16 08:37:02;;;;;;;11.43;4.95;;;;;;;35.42;21.24;99648.25;5043377;28;20029;-57
2021/08/16 08:39:28;;;;;;;7.50;5.25;;;;;;;34.99;21.40;99626.69;5041130;28;20036;-66
2021/08/16 08:41:56;;;;;;;9.05;4.90;;;;;;;34.70;22.30;99635.00;5043132;28;20033;-61
2021/08/16 08:44:23;;;;;;;6.03;4.80;;;;;;;34.49;22.62;99643.47;5043308;28;20029;-59
2021/08/16 08:46:49;;;;;;;7.00;4.95;;;;;;;34.43;23.68;99637.09;5042716;28;20029;-60
2021/08/16 08:49:14;;;;;;;10.90;5.00;;;;;;;34.43;23.27;99647.38;5042413;28;20028;-60
2021/08/16 08:51:41;;;;;;;9.13;4.88;;;;;;;34.23;22.97;99649.16;5042730;28;20033;-60
2021/08/16 08:54:08;;;;;;;10.88;5.18;;;;;;;34.15;23.35;99642.25;5039637;28;20122;-61
2021/08/16 08:56:34;;;;;;;6.95;4.95;;;;;;;34.11;23.37;99651.44;5042658;28;20513;-60
2021/08/16 08:58:59;;;;;;;7.75;5.22;;;;;;;34.02;23.52;99645.69;5041948;28;20123;-60
2021/08/16 09:01:27;;;;;;;8.48;4.82;;;;;;;33.97;23.53;99656.78;5041554;28;20029;-60
2021/08/16 09:03:54;;;;;;;6.38;4.68;;;;;;;33.78;23.64;99646.31;5042540;28;20063;-60
2021/08/16 09:06:29;;;;;;;7.63;5.15;;;;;;;33.77;23.06;99655.75;5042179;28;20033;-60
2021/08/16 09:08:55;;;;;;;6.57;4.88;;;;;;;33.38;24.25;99650.84;5042043;28;20392;-61
2021/08/16 09:11:21;;;;;;;8.63;4.97;;;;;;;33.23;24.57;99644.19;5040311;28;20029;-59
2021/08/16 09:13:49;;;;;;;9.82;5.10;;;;;;;33.24;24.60;99656.94;5045894;28;20404;-59
2021/08/16 09:16:15;;;;;;;7.75;4.65;;;;;;;33.04;25.57;99660.59;5052949;28;20037;-59
2021/08/16 09:18:40;;;;;;;9.60;5.30;;;;;;;32.89;25.62;99650.34;5052750;28;20040;-59
2021/08/16 09:21:06;;;;;;;10.55;5.00;;;;;;;32.81;25.80;99661.94;5049975;28;20421;-59
2021/08/16 09:23:47;;;;;;;8.70;5.20;;;;;;;32.87;25.14;99658.06;5041620;28;20031;-61
2021/08/16 09:26:22;;;;;;;7.63;5.45;;;;;;;32.72;26.23;99662.47;5037535;28;20468;-58
2021/08/16 09:28:48;;;;;;;8.85;5.57;;;;;;;32.67;26.57;99662.47;5046993;28;20051;-57
2021/08/16 09:31:19;;;;;;;8.63;5.15;;;;;;;32.82;25.82;99669.97;5048841;28;20037;-55
2021/08/16 09:34:01;;;;;;;9.23;5.13;;;;;;;32.93;26.27;99668.91;5032876;28;20033;-57
2021/08/16 09:36:36;;;;;;;8.90;5.18;;;;;;;32.94;25.94;99675.28;5051047;28;20037;-58
2021/08/16 09:39:02;;;;;;;;;;;;;;;33.29;24.59;99656.13;5051585;28;20036;-57
2021/08/16 09:41:28;;;;;;;8.45;5.32;;;;;;;32.63;26.36;99661.38;5052036;28;19913;-59
2021/08/16 09:44:07;;;;;;;7.70;5.50;;;;;;;32.60;25.92;99659.97;5033540;28;20103;-57
2021/08/16 09:46:34;;;;;;;9.98;4.53;;;;;;;32.16;27.40;99664.00;5032324;28;20044;-60
2021/08/16 09:49:03;;;;;;;9.43;5.28;;;;;;;31.99;27.73;99660.63;5032874;28;20057;-58
2021/08/16 09:51:30;;;;;;;8.10;5.53;;;;;;;31.82;27.93;99663.59;5049784;28;20033;-61
2021/08/16 09:53:58;;;;;;;6.50;5.10;;;;;;;31.73;27.99;99666.88;5050981;28;20079;-61
2021/08/16 09:56:23;;;;;;;8.43;4.93;;;;;;;31.62;27.92;99654.06;5050529;28;20047;-57
2021/08/16 09:58:49;;;;;;;11.48;5.28;;;;;;;31.52;28.20;99665.91;5052672;28;20044;-60
2021/08/16 10:01:16;;;;;;;6.47;4.90;;;;;;;31.36;28.38;99663.06;5057619;28;20021;-61
2021/08/16 10:03:41;;;;;;;8.88;4.85;;;;;;;31.18;28.50;99657.91;5067732;28;20033;-58
2021/08/16 10:06:08;;;;;;;6.65;5.00;;;;;;;31.16;28.46;99666.47;5050516;28;20036;-58
2021/08/16 10:08:38;;;;;;;6.30;4.47;;;;;;;31.18;28.09;99664.25;5046704;28;20040;-60
2021/08/16 10:11:05;;;;;;;6.88;5.18;;;;;;;31.11;27.90;99657.28;5041001;28;20392;-55
2021/08/16 10:13:34;;;;;;;7.50;4.53;;;;;;;31.08;28.11;99664.19;5059649;28;20029;-58
2021/08/16 10:16:03;;;;;;;7.82;4.88;;;;;;;31.10;28.24;99664.75;5060331;28;20033;-58
2021/08/16 10:18:51;;;;;;;9.52;4.35;;;;;;;31.26;27.66;99665.75;5061462;28;20052;-62
2021/08/16 10:21:21;;;;;;;5.00;4.20;;;;;;;31.14;27.79;99670.59;5049708;28;20100;-61
2021/08/16 10:23:48;;;;;;;5.15;4.25;;;;;;;31.11;27.51;99660.91;5050221;28;20501;-61
2021/08/16 10:26:33;;;;;;;7.10;4.68;;;;;;;31.29;27.80;99654.13;5045699;28;20032;-61
2021/08/16 10:29:04;;;;;;;7.43;4.35;;;;;;;31.26;27.50;99656.63;5041231;28;20123;-60
2021/08/16 10:31:50;;;;;;;8.15;5.13;;;;;;;31.49;27.50;99653.44;5062537;28;20083;-60
2021/08/16 10:34:25;;;;;;;9.65;5.00;;;;;;;31.50;27.36;99657.88;5050821;28;20496;-59
2021/08/16 10:37:00;;;;;;;10.50;4.55;;;;;;;31.51;27.19;99658.69;5039278;28;20044;-61
2021/08/16 10:39:45;;;;;;;6.38;4.18;;;;;;;31.47;26.75;99654.81;5062579;28;20033;-62
2021/08/16 10:42:31;;;;;;;9.50;4.70;;;;;;;31.39;27.68;99653.38;5061777;28;20028;-59
2021/08/16 10:44:59;;;;;;;7.07;4.28;;;;;;;31.13;27.50;99639.34;5043016;28;20036;-56
2021/08/16 10:47:33;;;;;;;7.85;4.70;;;;;;;31.19;26.91;99641.06;5039719;28;20048;-62
2021/08/16 10:50:12;;;;;;;6.55;4.20;;;;;;;31.15;26.94;99639.91;5058841;28;20028;-67
2021/08/16 10:52:40;;;;;;;7.40;4.20;;;;;;;31.02;27.35;99638.44;5047876;28;20128;-61
2021/08/16 10:55:17;;;;;;;6.82;4.00;;;;;;;31.19;26.86;99643.00;5045571;28;20028;-60
2021/08/16 10:57:44;;;;;;;6.93;4.50;;;;;;;31.00;26.75;99640.63;5059355;28;20099;-60
2021/08/16 11:00:12;;;;;;;6.00;4.15;;;;;;;30.91;26.90;99626.47;5061451;28;20040;-63
2021/08/16 11:02:40;;;;;;;7.22;4.30;;;;;;;30.69;27.34;99607.22;5041037;28;20040;-64
2021/08/16 11:05:06;;;;;;;6.43;3.92;;;;;;;30.59;27.71;99573.94;5064254;28;20576;-64
2021/08/16 11:07:32;;;;;;;7.68;4.78;;;;;;;30.87;27.58;99624.50;5059982;28;20093;-60
2021/08/16 11:10:00;;;;;;;7.55;4.50;;;;;;;30.95;27.43;99626.78;5056473;28;20497;-55
2021/08/16 11:12:44;;;;;;;5.95;3.80;;;;;;;31.19;26.77;99629.16;5048688;28;20112;-60
2021/08/16 11:15:14;;;;;;;9.40;4.65;;;;;;;31.07;26.88;99630.16;5063307;28;20052;-59
2021/08/16 11:17:40;;;;;;;5.57;3.60;;;;;;;31.08;26.63;99614.44;5044398;28;20524;-61
2021/08/16 11:20:14;;;;;;;4.72;4.13;;;;;;;31.05;26.17;99598.38;5037210;28;20129;-54
2021/08/16 11:22:44;;;;;;;7.15;4.40;;;;;;;30.97;26.46;99609.91;5063930;28;20054;-59
2021/08/16 11:25:11;;;;;;;5.55;4.22;;;;;;;30.87;27.50;99616.22;5063130;28;20065;-56
2021/08/16 11:27:41;;;;;;;5.88;4.22;;;;;;;30.75;27.07;99594.31;5059531;28;20075;-58